sensor_id;sensor_type;location;lat;lon;timestamp;pressure;altitude;pressure_sealevel;temperature;humidity
58775;BME280;44545;47.480;19.024;2023-12-20T04:21:16;100048.69;;;-0.63;100.00
58775;BME280;44545;47.480;19.024;2023-12-20T04:24:18;100048.69;;;-0.63;100.00
58775;BME280;44545;47.480;19.024;2023-12-20T04:27:20;100053.66;;;-1.28;100.00
58775;BME280;44545;47.480;19.024;2023-12-20T04:30:23;100045.69;;;-1.40;100.00
58775;BME280;44545;47.480;19.024;2023-12-20T04:33:25;100039.41;;;-1.44;100.00
58775;BME280;44545;47.480;19.024;2023-12-20T04:36:28;100036.06;;;-1.43;100.00
58775;BME280;44545;47.480;19.024;2023-12-20T04:39:32;100030.47;;;-1.30;100.00
58775;BME280;44545;47.480;19.024;2023-12-20T04:42:35;100017.56;;;-1.40;100.00
58775;BME280;44545;47.480;19.024;2023-12-20T04:45:37;100015.34;;;-1.46;100.00
58775;BME280;44545;47.480;19.024;2023-12-20T04:48:40;100019.38;;;-1.39;100.00
58775;BME280;44545;47.480;19.024;2023-12-20T04:51:42;100013.56;;;-1.56;100.00
58775;BME280;44545;47.480;19.024;2023-12-20T04:54:45;100012.31;;;-1.42;100.00
58775;BME280;44545;47.480;19.024;2023-12-20T04:57:47;100008.56;;;-1.45;100.00
58775;BME280;44545;47.480;19.024;2023-12-20T05:00:50;99992.56;;;-1.79;100.00
58775;BME280;44545;47.480;19.024;2023-12-20T05:03:52;99988.88;;;-1.55;100.00
58775;BME280;44545;47.480;19.024;2023-12-20T05:06:55;99988.81;;;-1.29;100.00
58775;BME280;44545;47.480;19.024;2023-12-20T05:09:58;99975.97;;;-1.57;100.00
58775;BME280;44545;47.480;19.024;2023-12-20T05:13:01;99973.34;;;-1.39;100.00
58775;BME280;44545;47.480;19.024;2023-12-20T05:16:03;99966.19;;;-1.24;100.00
58775;BME280;44545;47.480;19.024;2023-12-20T05:19:06;99965.28;;;-1.25;100.00
58775;BME280;44545;47.480;19.024;2023-12-20T05:22:09;99969.44;;;-1.08;100.00
58775;BME280;44545;47.480;19.024;2023-12-20T05:25:12;99952.59;;;-1.15;100.00
58775;BME280;44545;47.480;19.024;2023-12-20T05:28:15;99964.66;;;-0.86;100.00
58775;BME280;44545;47.480;19.024;2023-12-20T05:31:17;99967.50;;;-0.64;100.00
58775;BME280;44545;47.480;19.024;2023-12-20T05:34:20;99969.44;;;-0.80;100.00
58775;BME280;44545;47.480;19.024;2023-12-20T05:37:23;99981.41;;;-1.26;100.00
58775;BME280;44545;47.480;19.024;2023-12-20T05:40:25;100000.09;;;-1.36;100.00
58775;BME280;44545;47.480;19.024;2023-12-20T05:43:27;99994.81;;;-1.28;100.00
58775;BME280;44545;47.480;19.024;2023-12-20T05:46:30;99991.66;;;-0.98;100.00
58775;BME280;44545;47.480;19.024;2023-12-20T05:49:32;99982.53;;;-1.41;100.00
58775;BME280;44545;47.480;19.024;2023-12-20T05:52:34;99970.84;;;-1.57;100.00
58775;BME280;44545;47.480;19.024;2023-12-20T05:55:37;99966.72;;;-1.10;100.00
58775;BME280;44545;47.480;19.024;2023-12-20T05:58:40;99951.50;;;-1.36;100.00
58775;BME280;44545;47.480;19.024;2023-12-20T06:01:43;99941.19;;;-1.55;100.00
58775;BME280;44545;47.480;19.024;2023-12-20T06:04:46;99955.63;;;-1.55;100.00
58775;BME280;44545;47.480;19.024;2023-12-20T06:07:48;99954.03;;;-1.63;100.00
58775;BME280;44545;47.480;19.024;2023-12-20T06:10:53;99946.56;;;-1.79;100.00
58775;BME280;44545;47.480;19.024;2023-12-20T06:13:55;99934.41;;;-1.82;100.00
58775;BME280;44545;47.480;19.024;2023-12-20T06:16:58;99931.22;;;-1.79;100.00
58775;BME280;44545;47.480;19.024;2023-12-20T06:20:01;99927.47;;;-1.74;100.00
58775;BME280;44545;47.480;19.024;2023-12-20T06:23:04;99935.28;;;-1.81;100.00
58775;BME280;44545;47.480;19.024;2023-12-20T06:26:06;99930.63;;;-1.85;100.00
58775;BME280;44545;47.480;19.024;2023-12-20T06:29:08;99935.00;;;-1.93;100.00
58775;BME280;44545;47.480;19.024;2023-12-20T06:32:11;99935.62;;;-1.96;100.00
58775;BME280;44545;47.480;19.024;2023-12-20T06:35:13;99935.75;;;-1.85;100.00
58775;BME280;44545;47.480;19.024;2023-12-20T06:38:18;99947.28;;;-1.71;100.00
58775;BME280;44545;47.480;19.024;2023-12-20T06:41:21;99950.06;;;-1.51;100.00
58775;BME280;44545;47.480;19.024;2023-12-20T06:44:23;99960.41;;;-1.77;100.00
58775;BME280;44545;47.480;19.024;2023-12-20T06:47:25;99965.66;;;-1.84;100.00
58775;BME280;44545;47.480;19.024;2023-12-20T06:50:28;99977.63;;;-1.21;100.00
58775;BME280;44545;47.480;19.024;2023-12-20T06:53:31;99979.59;;;-0.99;100.00
58775;BME280;44545;47.480;19.024;2023-12-20T06:56:33;99987.03;;;-1.39;100.00
58775;BME280;44545;47.480;19.024;2023-12-20T06:59:40;99992.22;;;-1.20;100.00
58775;BME280;44545;47.480;19.024;2023-12-20T07:02:43;99997.19;;;-1.21;100.00
58775;BME280;44545;47.480;19.024;2023-12-20T07:05:46;99994.84;;;-1.37;100.00
58775;BME280;44545;47.480;19.024;2023-12-20T07:08:48;99984.09;;;-0.97;100.00
58775;BME280;44545;47.480;19.024;2023-12-20T07:11:51;99985.75;;;-0.70;100.00
58775;BME280;44545;47.480;19.024;2023-12-20T07:14:53;99985.87;;;-0.87;100.00
58775;BME280;44545;47.480;19.024;2023-12-20T07:17:55;99976.84;;;-0.64;100.00
58775;BME280;44545;47.480;19.024;2023-12-20T07:20:58;99974.72;;;-0.60;100.00
58775;BME280;44545;47.480;19.024;2023-12-20T07:24:01;99970.41;;;-0.32;100.00
58775;BME280;44545;47.480;19.024;2023-12-20T07:27:03;99963.41;;;-0.62;100.00
58775;BME280;44545;47.480;19.024;2023-12-20T07:30:06;99977.84;;;-0.81;100.00
58775;BME280;44545;47.480;19.024;2023-12-20T07:33:09;99972.78;;;-0.62;100.00
58775;BME280;44545;47.480;19.024;2023-12-20T07:36:12;99972.06;;;-0.51;100.00
58775;BME280;44545;47.480;19.024;2023-12-20T07:39:15;99975.94;;;-0.08;100.00
58775;BME280;44545;47.480;19.024;2023-12-20T07:42:18;99982.31;;;-0.13;100.00
58775;BME280;44545;47.480;19.024;2023-12-20T07:45:21;99982.47;;;0.17;100.00
58775;BME280;44545;47.480;19.024;2023-12-20T07:48:24;99975.72;;;-0.01;100.00
58775;BME280;44545;47.480;19.024;2023-12-20T07:51:26;99973.25;;;0.19;100.00
58775;BME280;44545;47.480;19.024;2023-12-20T07:54:31;99976.03;;;0.12;100.00
58775;BME280;44545;47.480;19.024;2023-12-20T07:57:33;99966.59;;;0.21;100.00
58775;BME280;44545;47.480;19.024;2023-12-20T08:00:36;99961.28;;;0.39;100.00
58775;BME280;44545;47.480;19.024;2023-12-20T08:03:38;99958.06;;;0.31;100.00
58775;BME280;44545;47.480;19.024;2023-12-20T08:06:41;99951.34;;;0.62;100.00
58775;BME280;44545;47.480;19.024;2023-12-20T08:09:43;99950.88;;;0.77;100.00
58775;BME280;44545;47.480;19.024;2023-12-20T08:12:46;99954.72;;;0.82;100.00
58775;BME280;44545;47.480;19.024;2023-12-20T08:15:48;99949.88;;;0.95;100.00
58775;BME280;44545;47.480;19.024;2023-12-20T08:18:51;99951.84;;;0.48;100.00
58775;BME280;44545;47.480;19.024;2023-12-20T08:21:54;99950.88;;;0.77;100.00
58775;BME280;44545;47.480;19.024;2023-12-20T08:24:56;99952.16;;;0.82;100.00
58775;BME280;44545;47.480;19.024;2023-12-20T08:27:59;99953.47;;;1.07;100.00
58775;BME280;44545;47.480;19.024;2023-12-20T08:31:01;99950.66;;;1.25;100.00
58775;BME280;44545;47.480;19.024;2023-12-20T08:34:04;99956.69;;;1.15;100.00
58775;BME280;44545;47.480;19.024;2023-12-20T08:37:10;99961.13;;;0.77;100.00
58775;BME280;44545;47.480;19.024;2023-12-20T08:40:13;99957.38;;;0.63;100.00
58775;BME280;44545;47.480;19.024;2023-12-20T08:43:16;99962.81;;;0.86;100.00
58775;BME280;44545;47.480;19.024;2023-12-20T08:46:19;99959.75;;;0.41;100.00
58775;BME280;44545;47.480;19.024;2023-12-20T08:49:21;99957.66;;;0.27;100.00
58775;BME280;44545;47.480;19.024;2023-12-20T08:52:24;99966.88;;;0.25;100.00
58775;BME280;44545;47.480;19.024;2023-12-20T08:55:26;99965.16;;;0.44;100.00
58775;BME280;44545;47.480;19.024;2023-12-20T08:58:30;99961.38;;;0.30;100.00
58775;BME280;44545;47.480;19.024;2023-12-20T09:01:33;99960.25;;;0.76;100.00
58775;BME280;44545;47.480;19.024;2023-12-20T09:04:35;99959.81;;;0.61;100.00
58775;BME280;44545;47.480;19.024;2023-12-20T09:07:38;99964.69;;;0.58;100.00
58775;BME280;44545;47.480;19.024;2023-12-20T09:10:40;99968.25;;;0.60;100.00
58775;BME280;44545;47.480;19.024;2023-12-20T09:13:43;99969.31;;;0.73;100.00
58775;BME280;44545;47.480;19.024;2023-12-20T09:16:46;99968.06;;;0.88;100.00
58775;BME280;44545;47.480;19.024;2023-12-20T09:19:49;99953.22;;;1.35;100.00
58775;BME280;44545;47.480;19.024;2023-12-20T09:22:51;99950.91;;;1.18;100.00
58775;BME280;44545;47.480;19.024;2023-12-20T09:25:54;99951.41;;;1.24;100.00
58775;BME280;44545;47.480;19.024;2023-12-20T09:28:59;99948.34;;;1.07;100.00
58775;BME280;44545;47.480;19.024;2023-12-20T09:32:02;99937.25;;;1.70;100.00
58775;BME280;44545;47.480;19.024;2023-12-20T09:35:05;99930.25;;;2.22;100.00
58775;BME280;44545;47.480;19.024;2023-12-20T09:38:08;99922.88;;;2.36;100.00
58775;BME280;44545;47.480;19.024;2023-12-20T09:41:12;99914.09;;;2.78;100.00
58775;BME280;44545;47.480;19.024;2023-12-20T09:44:15;99909.28;;;2.49;100.00
58775;BME280;44545;47.480;19.024;2023-12-20T09:47:19;99914.41;;;2.27;100.00
58775;BME280;44545;47.480;19.024;2023-12-20T09:50:25;99906.25;;;2.43;100.00
58775;BME280;44545;47.480;19.024;2023-12-20T09:53:29;99903.41;;;2.84;100.00
58775;BME280;44545;47.480;19.024;2023-12-20T09:56:34;99894.34;;;2.89;100.00
58775;BME280;44545;47.480;19.024;2023-12-20T09:59:36;99878.09;;;2.90;100.00
58775;BME280;44545;47.480;19.024;2023-12-20T10:02:44;99879.66;;;2.88;100.00
58775;BME280;44545;47.480;19.024;2023-12-20T10:05:48;99888.03;;;2.52;100.00
58775;BME280;44545;47.480;19.024;2023-12-20T10:08:52;99878.16;;;2.46;100.00
58775;BME280;44545;47.480;19.024;2023-12-20T10:11:55;99871.50;;;2.60;100.00
58775;BME280;44545;47.480;19.024;2023-12-20T10:14:59;99883.47;;;2.93;100.00
58775;BME280;44545;47.480;19.024;2023-12-20T10:18:02;99866.78;;;3.45;100.00
58775;BME280;44545;47.480;19.024;2023-12-20T10:21:06;99845.78;;;5.12;100.00
58775;BME280;44545;47.480;19.024;2023-12-20T10:24:17;99859.06;;;5.83;100.00
58775;BME280;44545;47.480;19.024;2023-12-20T10:27:19;99841.31;;;5.22;100.00
58775;BME280;44545;47.480;19.024;2023-12-20T10:30:22;99825.53;;;5.71;100.00
58775;BME280;44545;47.480;19.024;2023-12-20T10:33:28;99816.00;;;7.11;96.68
58775;BME280;44545;47.480;19.024;2023-12-20T10:36:32;99819.13;;;7.50;91.40
58775;BME280;44545;47.480;19.024;2023-12-20T10:39:34;99810.22;;;7.30;92.42
58775;BME280;44545;47.480;19.024;2023-12-20T10:42:37;99814.75;;;9.44;79.39
58775;BME280;44545;47.480;19.024;2023-12-20T10:45:43;99881.16;;;11.60;65.26
58775;BME280;44545;47.480;19.024;2023-12-20T10:48:46;99932.34;;;12.63;56.75
58775;BME280;44545;47.480;19.024;2023-12-20T10:51:50;99877.06;;;11.87;57.12
58775;BME280;44545;47.480;19.024;2023-12-20T10:54:54;99816.91;;;10.82;59.96
58775;BME280;44545;47.480;19.024;2023-12-20T10:58:01;99788.53;;;10.69;62.32
58775;BME280;44545;47.480;19.024;2023-12-20T11:01:04;99855.72;;;11.56;58.05
58775;BME280;44545;47.480;19.024;2023-12-20T11:04:10;99818.13;;;11.31;59.47
58775;BME280;44545;47.480;19.024;2023-12-20T11:07:43;99840.28;;;12.04;58.11
58775;BME280;44545;47.480;19.024;2023-12-20T11:10:51;99909.16;;;13.68;52.79
58775;BME280;44545;47.480;19.024;2023-12-20T11:14:01;99987.22;;;15.12;47.85
58775;BME280;44545;47.480;19.024;2023-12-20T11:17:08;99998.72;;;16.11;45.41
58775;BME280;44545;47.480;19.024;2023-12-20T11:20:12;100097.56;;;18.29;39.91
58775;BME280;44545;47.480;19.024;2023-12-20T11:23:15;100185.16;;;20.21;35.70
58775;BME280;44545;47.480;19.024;2023-12-20T11:26:22;100187.59;;;20.05;34.18
58775;BME280;44545;47.480;19.024;2023-12-20T11:29:33;100107.28;;;19.38;35.42
58775;BME280;44545;47.480;19.024;2023-12-20T11:32:36;99996.97;;;16.83;38.28
58775;BME280;44545;47.480;19.024;2023-12-20T11:35:39;99748.91;;;12.77;46.41
58775;BME280;44545;47.480;19.024;2023-12-20T11:38:58;99884.72;;;15.74;41.57
58775;BME280;44545;47.480;19.024;2023-12-20T11:42:05;99948.37;;;16.68;39.76
58775;BME280;44545;47.480;19.024;2023-12-20T11:45:14;100031.66;;;18.88;36.44
58775;BME280;44545;47.480;19.024;2023-12-20T11:48:18;100236.41;;;22.32;30.61
58775;BME280;44545;47.480;19.024;2023-12-20T11:51:21;100241.88;;;22.69;29.59
58775;BME280;44545;47.480;19.024;2023-12-20T11:54:23;100238.09;;;22.16;29.54
58775;BME280;44545;47.480;19.024;2023-12-20T11:57:25;99983.69;;;18.06;35.78
58775;BME280;44545;47.480;19.024;2023-12-20T12:00:29;100059.66;;;19.36;33.59
58775;BME280;44545;47.480;19.024;2023-12-20T12:03:32;99895.94;;;16.78;38.41
58775;BME280;44545;47.480;19.024;2023-12-20T12:06:34;99599.88;;;13.35;49.19
58775;BME280;44545;47.480;19.024;2023-12-20T12:09:37;99553.06;;;13.46;56.95
58775;BME280;44545;47.480;19.024;2023-12-20T12:12:40;99562.28;;;11.76;61.82
58775;BME280;44545;47.480;19.024;2023-12-20T12:15:42;99671.72;;;10.02;77.60
58775;BME280;44545;47.480;19.024;2023-12-20T12:18:55;99672.87;;;9.15;92.20
58775;BME280;44545;47.480;19.024;2023-12-20T12:22:05;99668.81;;;9.03;94.90
58775;BME280;44545;47.480;19.024;2023-12-20T12:25:16;99687.91;;;8.86;97.46
58775;BME280;44545;47.480;19.024;2023-12-20T12:28:19;99692.19;;;8.67;100.00
58775;BME280;44545;47.480;19.024;2023-12-20T12:31:21;99679.91;;;8.31;100.00
58775;BME280;44545;47.480;19.024;2023-12-20T12:34:24;99677.78;;;8.23;100.00
58775;BME280;44545;47.480;19.024;2023-12-20T12:37:26;99691.75;;;8.25;100.00
58775;BME280;44545;47.480;19.024;2023-12-20T12:40:34;99682.56;;;8.32;100.00
58775;BME280;44545;47.480;19.024;2023-12-20T12:43:38;99678.47;;;8.03;100.00
58775;BME280;44545;47.480;19.024;2023-12-20T12:46:40;99681.87;;;7.54;100.00
58775;BME280;44545;47.480;19.024;2023-12-20T12:49:43;99689.34;;;7.17;100.00
58775;BME280;44545;47.480;19.024;2023-12-20T12:52:46;99688.09;;;6.95;100.00
58775;BME280;44545;47.480;19.024;2023-12-20T12:55:49;99697.16;;;6.72;100.00
58775;BME280;44545;47.480;19.024;2023-12-20T12:58:51;99688.84;;;6.48;100.00
58775;BME280;44545;47.480;19.024;2023-12-20T13:01:53;99686.31;;;6.50;100.00
58775;BME280;44545;47.480;19.024;2023-12-20T13:04:56;99685.59;;;6.53;100.00
58775;BME280;44545;47.480;19.024;2023-12-20T13:07:59;99687.41;;;6.39;100.00
58775;BME280;44545;47.480;19.024;2023-12-20T13:11:01;99685.97;;;6.44;100.00
58775;BME280;44545;47.480;19.024;2023-12-20T13:14:06;99691.03;;;6.27;100.00
58775;BME280;44545;47.480;19.024;2023-12-20T13:17:10;99690.78;;;6.23;100.00
58775;BME280;44545;47.480;19.024;2023-12-20T13:20:13;99683.25;;;6.27;100.00
58775;BME280;44545;47.480;19.024;2023-12-20T13:23:16;99678.59;;;6.07;100.00
58775;BME280;44545;47.480;19.024;2023-12-20T13:26:20;99665.72;;;5.94;100.00
58775;BME280;44545;47.480;19.024;2023-12-20T13:29:23;99676.41;;;6.00;100.00
58775;BME280;44545;47.480;19.024;2023-12-20T13:32:26;99685.00;;;5.99;100.00
58775;BME280;44545;47.480;19.024;2023-12-20T13:35:28;99671.69;;;5.79;100.00
58775;BME280;44545;47.480;19.024;2023-12-20T13:38:31;99680.06;;;5.75;100.00
58775;BME280;44545;47.480;19.024;2023-12-20T13:41:33;99666.28;;;5.61;100.00
58775;BME280;44545;47.480;19.024;2023-12-20T13:44:35;99676.72;;;5.63;100.00
58775;BME280;44545;47.480;19.024;2023-12-20T13:47:38;99679.03;;;5.58;100.00
58775;BME280;44545;47.480;19.024;2023-12-20T13:50:40;99682.03;;;5.51;100.00
58775;BME280;44545;47.480;19.024;2023-12-20T13:53:43;99682.22;;;5.41;100.00
58775;BME280;44545;47.480;19.024;2023-12-20T13:56:45;99683.34;;;5.45;100.00
58775;BME280;44545;47.480;19.024;2023-12-20T14:00:07;99675.09;;;5.37;100.00
58775;BME280;44545;47.480;19.024;2023-12-20T14:03:16;99677.94;;;5.41;100.00
58775;BME280;44545;47.480;19.024;2023-12-20T14:06:19;99680.16;;;5.35;100.00
58775;BME280;44545;47.480;19.024;2023-12-20T14:09:22;99679.56;;;5.39;100.00
58775;BME280;44545;47.480;19.024;2023-12-20T14:12:25;99686.53;;;5.40;100.00
58775;BME280;44545;47.480;19.024;2023-12-20T14:15:27;99696.66;;;5.37;100.00
58775;BME280;44545;47.480;19.024;2023-12-20T14:18:30;99700.53;;;5.31;100.00
58775;BME280;44545;47.480;19.024;2023-12-20T14:21:33;99704.53;;;5.26;100.00
58775;BME280;44545;47.480;19.024;2023-12-20T14:24:35;99697.47;;;5.23;100.00
58775;BME280;44545;47.480;19.024;2023-12-20T14:27:39;99690.81;;;5.13;100.00
58775;BME280;44545;47.480;19.024;2023-12-20T14:30:42;99693.50;;;5.15;100.00
58775;BME280;44545;47.480;19.024;2023-12-20T14:33:45;99688.03;;;5.24;100.00
58775;BME280;44545;47.480;19.024;2023-12-20T14:36:48;99696.97;;;5.29;100.00
58775;BME280;44545;47.480;19.024;2023-12-20T14:39:50;99685.25;;;5.20;100.00
58775;BME280;44545;47.480;19.024;2023-12-20T14:42:54;99697.78;;;5.14;100.00
58775;BME280;44545;47.480;19.024;2023-12-20T14:45:57;99708.03;;;5.13;100.00
58775;BME280;44545;47.480;19.024;2023-12-20T14:48:59;99706.00;;;5.09;100.00
58775;BME280;44545;47.480;19.024;2023-12-20T14:52:04;99718.94;;;4.95;100.00
58775;BME280;44545;47.480;19.024;2023-12-20T14:55:07;99720.13;;;5.00;100.00
58775;BME280;44545;47.480;19.024;2023-12-20T14:58:10;99713.78;;;4.82;100.00
58775;BME280;44545;47.480;19.024;2023-12-20T15:01:12;99721.41;;;4.81;100.00
58775;BME280;44545;47.480;19.024;2023-12-20T15:04:15;99728.47;;;4.83;100.00
58775;BME280;44545;47.480;19.024;2023-12-20T15:07:19;99742.75;;;4.78;100.00
58775;BME280;44545;47.480;19.024;2023-12-20T15:10:21;99735.38;;;4.71;100.00
58775;BME280;44545;47.480;19.024;2023-12-20T15:13:24;99735.00;;;4.65;100.00
58775;BME280;44545;47.480;19.024;2023-12-20T15:16:27;99750.50;;;4.78;100.00
58775;BME280;44545;47.480;19.024;2023-12-20T15:19:30;99754.47;;;4.73;100.00
58775;BME280;44545;47.480;19.024;2023-12-20T15:22:33;99751.72;;;4.83;100.00
58775;BME280;44545;47.480;19.024;2023-12-20T15:25:36;99760.75;;;4.76;100.00
58775;BME280;44545;47.480;19.024;2023-12-20T15:28:38;99767.53;;;4.88;100.00
58775;BME280;44545;47.480;19.024;2023-12-20T15:31:46;99777.63;;;4.71;100.00
58775;BME280;44545;47.480;19.024;2023-12-20T15:34:49;99766.81;;;4.77;100.00
58775;BME280;44545;47.480;19.024;2023-12-20T15:37:52;99770.78;;;4.72;100.00
58775;BME280;44545;47.480;19.024;2023-12-20T15:40:55;99771.53;;;4.71;100.00
58775;BME280;44545;47.480;19.024;2023-12-20T15:43:57;99769.44;;;4.65;100.00
58775;BME280;44545;47.480;19.024;2023-12-20T15:46:59;99779.19;;;4.56;100.00
58775;BME280;44545;47.480;19.024;2023-12-20T15:50:02;99773.09;;;4.55;100.00
58775;BME280;44545;47.480;19.024;2023-12-20T15:53:06;99773.91;;;4.54;100.00
58775;BME280;44545;47.480;19.024;2023-12-20T15:56:08;99775.06;;;4.46;100.00
58775;BME280;44545;47.480;19.024;2023-12-20T15:59:10;99782.00;;;4.47;100.00
58775;BME280;44545;47.480;19.024;2023-12-20T16:02:13;99792.69;;;4.40;100.00
58775;BME280;44545;47.480;19.024;2023-12-20T16:05:15;99801.25;;;4.39;100.00
58775;BME280;44545;47.480;19.024;2023-12-20T16:08:18;99799.66;;;4.41;100.00
58775;BME280;44545;47.480;19.024;2023-12-20T16:11:21;99800.03;;;4.34;100.00
58775;BME280;44545;47.480;19.024;2023-12-20T16:14:23;99803.72;;;4.38;100.00
58775;BME280;44545;47.480;19.024;2023-12-20T16:17:27;99798.94;;;4.30;100.00
58775;BME280;44545;47.480;19.024;2023-12-20T16:20:30;99797.06;;;4.16;100.00
58775;BME280;44545;47.480;19.024;2023-12-20T16:23:33;99806.06;;;4.09;100.00
58775;BME280;44545;47.480;19.024;2023-12-20T16:26:35;99812.22;;;4.11;100.00
